Mocanaqua, Pennsylvania
Current Conditions -  °F | °C
As of 5:55 PM on Wednesday 22 Oct 2014 (Local Time) from KHZL Reporting Station
Drizzle Drizzle  
Wind Chill: 40°   Ceiling: 700
Heat Index: 46°   Visibility: 3mi
Dew Point: 45°   Wind: 15mph
Humidity: 93%   Direction: 330°NNW
Pressure: 29.97"   Gusts: 23mph
Location:  41.1968°N, 76.1956°W
Report Text: KHZL 222155Z AUTO 33013G20KT 3SM DZ OVC007 08/07 A2997 RMK AO2 LTG DSNT SE
Loading
Personal Weather Stations






























Interactive Weather Map
Tropical Storm Tracking
New forecast layout! Learn more

10-Day Weather Forecast

Advertisements
Track Severe Weather on mobile